sensor_id;sensor_type;location;lat;lon;timestamp;pressure;altitude;pressure_sealevel;temperature;humidity
10688;BME280;5392;42.688;23.298;2023-04-03T00:00:37;57363.31;;;-144.48;100.00
10688;BME280;5392;42.688;23.298;2023-04-03T00:03:04;57375.84;;;-144.48;100.00
10688;BME280;5392;42.688;23.298;2023-04-03T00:05:32;57375.84;;;-144.48;100.00
10688;BME280;5392;42.688;23.298;2023-04-03T00:07:58;57369.59;;;-144.48;100.00
10688;BME280;5392;42.688;23.298;2023-04-03T00:10:25;57388.38;;;-144.48;100.00
10688;BME280;5392;42.688;23.298;2023-04-03T00:12:52;57405.06;;;-144.48;100.00
10688;BME280;5392;42.688;23.298;2023-04-03T00:15:18;57377.94;;;-144.48;100.00
10688;BME280;5392;42.688;23.298;2023-04-03T00:17:45;57369.59;;;-144.48;100.00
10688;BME280;5392;42.688;23.298;2023-04-03T00:20:12;57400.91;;;-144.48;100.00
10688;BME280;5392;42.688;23.298;2023-04-03T00:22:38;57365.41;;;-144.48;100.00
10688;BME280;5392;42.688;23.298;2023-04-03T00:25:06;57373.75;;;-144.48;100.00
10688;BME280;5392;42.688;23.298;2023-04-03T00:27:32;57369.59;;;-144.48;100.00
10688;BME280;5392;42.688;23.298;2023-04-03T00:29:59;57386.28;;;-144.48;100.00
10688;BME280;5392;42.688;23.298;2023-04-03T00:32:26;57352.91;;;-144.48;100.00
10688;BME280;5392;42.688;23.298;2023-04-03T00:34:52;57321.59;;;-144.48;100.00
10688;BME280;5392;42.688;23.298;2023-04-03T00:37:19;57400.91;;;-144.48;100.00
10688;BME280;5392;42.688;23.298;2023-04-03T00:39:45;57380.03;;;-144.48;100.00
10688;BME280;5392;42.688;23.298;2023-04-03T00:42:12;57363.31;;;-144.48;100.00
10688;BME280;5392;42.688;23.298;2023-04-03T00:47:07;57400.91;;;-144.48;100.00
10688;BME280;5392;42.688;23.298;2023-04-03T00:49:35;57325.75;;;-144.48;100.00
10688;BME280;5392;42.688;23.298;2023-04-03T00:52:05;57346.63;;;-144.48;100.00
10688;BME280;5392;42.688;23.298;2023-04-03T00:54:36;57407.16;;;-144.48;100.00
10688;BME280;5392;42.688;23.298;2023-04-03T00:57:03;57354.97;;;-144.48;100.00
10688;BME280;5392;42.688;23.298;2023-04-03T00:59:34;57354.97;;;-144.48;100.00
10688;BME280;5392;42.688;23.298;2023-04-03T01:02:02;57346.63;;;-144.48;100.00
10688;BME280;5392;42.688;23.298;2023-04-03T01:04:32;57344.53;;;-144.48;100.00
10688;BME280;5392;42.688;23.298;2023-04-03T01:07:03;57386.28;;;-144.48;100.00
10688;BME280;5392;42.688;23.298;2023-04-03T01:09:31;57338.28;;;-144.48;100.00
10688;BME280;5392;42.688;23.298;2023-04-03T01:14:46;57373.75;;;-144.48;100.00
10688;BME280;5392;42.688;23.298;2023-04-03T01:17:35;57371.69;;;-144.48;100.00
10688;BME280;5392;42.688;23.298;2023-04-03T01:25:15;57384.19;;;-144.48;100.00
10688;BME280;5392;42.688;23.298;2023-04-03T01:27:41;57357.06;;;-144.48;100.00
10688;BME280;5392;42.688;23.298;2023-04-03T01:30:08;57367.50;;;-144.48;100.00
10688;BME280;5392;42.688;23.298;2023-04-03T01:32:35;57334.09;;;-144.48;100.00
10688;BME280;5392;42.688;23.298;2023-04-03T01:35:02;57365.41;;;-144.48;100.00
10688;BME280;5392;42.688;23.298;2023-04-03T01:37:29;57380.03;;;-144.48;100.00
10688;BME280;5392;42.688;23.298;2023-04-03T01:39:56;57350.81;;;-144.48;100.00
10688;BME280;5392;42.688;23.298;2023-04-03T01:42:22;57359.16;;;-144.48;100.00
10688;BME280;5392;42.688;23.298;2023-04-03T01:44:49;57363.31;;;-144.48;100.00
10688;BME280;5392;42.688;23.298;2023-04-03T01:47:16;57375.84;;;-144.48;100.00
10688;BME280;5392;42.688;23.298;2023-04-03T01:49:43;57371.69;;;-144.48;100.00
10688;BME280;5392;42.688;23.298;2023-04-03T01:52:09;57371.69;;;-144.48;100.00
10688;BME280;5392;42.688;23.298;2023-04-03T01:54:36;57359.16;;;-144.48;100.00
10688;BME280;5392;42.688;23.298;2023-04-03T01:57:02;57380.03;;;-144.48;100.00
10688;BME280;5392;42.688;23.298;2023-04-03T01:59:29;57377.94;;;-144.48;100.00
10688;BME280;5392;42.688;23.298;2023-04-03T02:01:56;57369.59;;;-144.48;100.00
10688;BME280;5392;42.688;23.298;2023-04-03T02:04:22;57396.72;;;-144.48;100.00
10688;BME280;5392;42.688;23.298;2023-04-03T02:06:49;57365.41;;;-144.48;100.00
10688;BME280;5392;42.688;23.298;2023-04-03T02:09:16;57359.16;;;-144.48;100.00
10688;BME280;5392;42.688;23.298;2023-04-03T02:11:42;57375.84;;;-144.48;100.00
10688;BME280;5392;42.688;23.298;2023-04-03T02:14:09;57346.63;;;-144.48;100.00
10688;BME280;5392;42.688;23.298;2023-04-03T02:16:36;57348.72;;;-144.48;100.00
10688;BME280;5392;42.688;23.298;2023-04-03T02:19:03;57334.09;;;-144.48;100.00
10688;BME280;5392;42.688;23.298;2023-04-03T02:21:30;57329.94;;;-144.48;100.00
10688;BME280;5392;42.688;23.298;2023-04-03T02:23:56;57361.25;;;-144.48;100.00
10688;BME280;5392;42.688;23.298;2023-04-03T02:26:23;57371.69;;;-144.48;100.00
10688;BME280;5392;42.688;23.298;2023-04-03T02:28:50;57388.38;;;-144.48;100.00
10688;BME280;5392;42.688;23.298;2023-04-03T02:31:17;57384.19;;;-144.48;100.00
10688;BME280;5392;42.688;23.298;2023-04-03T02:33:44;57377.94;;;-144.48;100.00
10688;BME280;5392;42.688;23.298;2023-04-03T02:36:11;57346.63;;;-144.48;100.00
10688;BME280;5392;42.688;23.298;2023-04-03T02:38:37;57329.94;;;-144.48;100.00
10688;BME280;5392;42.688;23.298;2023-04-03T02:41:06;57375.84;;;-144.48;100.00
10688;BME280;5392;42.688;23.298;2023-04-03T02:43:34;57294.44;;;-144.48;100.00
10688;BME280;5392;42.688;23.298;2023-04-03T02:46:00;57327.84;;;-144.48;100.00
10688;BME280;5392;42.688;23.298;2023-04-03T02:48:27;57354.97;;;-144.48;100.00
10688;BME280;5392;42.688;23.298;2023-04-03T02:50:54;57342.47;;;-144.48;100.00
10688;BME280;5392;42.688;23.298;2023-04-03T02:53:21;57354.97;;;-144.48;100.00
10688;BME280;5392;42.688;23.298;2023-04-03T02:55:49;57354.97;;;-144.48;100.00
10688;BME280;5392;42.688;23.298;2023-04-03T02:58:15;57407.16;;;-144.48;100.00
10688;BME280;5392;42.688;23.298;2023-04-03T03:00:42;57373.75;;;-144.48;100.00
10688;BME280;5392;42.688;23.298;2023-04-03T03:03:09;57334.09;;;-144.48;100.00
10688;BME280;5392;42.688;23.298;2023-04-03T03:05:35;57384.19;;;-144.48;100.00
10688;BME280;5392;42.688;23.298;2023-04-03T03:08:02;57382.13;;;-144.48;100.00
10688;BME280;5392;42.688;23.298;2023-04-03T03:10:29;57384.19;;;-144.48;100.00
10688;BME280;5392;42.688;23.298;2023-04-03T03:12:55;57413.44;;;-144.48;100.00
10688;BME280;5392;42.688;23.298;2023-04-03T03:15:22;57382.13;;;-144.48;100.00
10688;BME280;5392;42.688;23.298;2023-04-03T03:17:49;57371.69;;;-144.48;100.00
10688;BME280;5392;42.688;23.298;2023-04-03T03:20:15;57359.16;;;-144.48;100.00
10688;BME280;5392;42.688;23.298;2023-04-03T03:22:42;57405.06;;;-144.48;100.00
10688;BME280;5392;42.688;23.298;2023-04-03T03:25:09;57359.16;;;-144.48;100.00
10688;BME280;5392;42.688;23.298;2023-04-03T03:27:35;57398.81;;;-144.48;100.00
10688;BME280;5392;42.688;23.298;2023-04-03T03:30:03;57382.13;;;-144.48;100.00
10688;BME280;5392;42.688;23.298;2023-04-03T03:32:30;57359.16;;;-144.48;100.00
10688;BME280;5392;42.688;23.298;2023-04-03T03:34:56;57334.09;;;-144.48;100.00
10688;BME280;5392;42.688;23.298;2023-04-03T03:37:23;57323.66;;;-144.48;100.00
10688;BME280;5392;42.688;23.298;2023-04-03T03:39:50;57396.72;;;-144.48;100.00
10688;BME280;5392;42.688;23.298;2023-04-03T03:42:16;57371.69;;;-144.48;100.00
10688;BME280;5392;42.688;23.298;2023-04-03T03:44:43;57363.31;;;-144.48;100.00
10688;BME280;5392;42.688;23.298;2023-04-03T03:47:10;57354.97;;;-144.48;100.00
10688;BME280;5392;42.688;23.298;2023-04-03T03:49:37;57323.66;;;-144.48;100.00
10688;BME280;5392;42.688;23.298;2023-04-03T03:52:03;57350.81;;;-144.48;100.00
10688;BME280;5392;42.688;23.298;2023-04-03T03:54:30;57359.16;;;-144.48;100.00
10688;BME280;5392;42.688;23.298;2023-04-03T03:56:56;57377.94;;;-144.48;100.00
10688;BME280;5392;42.688;23.298;2023-04-03T03:59:23;57350.81;;;-144.48;100.00
10688;BME280;5392;42.688;23.298;2023-04-03T04:01:50;57375.84;;;-144.48;100.00
10688;BME280;5392;42.688;23.298;2023-04-03T04:04:16;57346.63;;;-144.48;100.00
10688;BME280;5392;42.688;23.298;2023-04-03T04:06:43;57377.94;;;-144.48;100.00
10688;BME280;5392;42.688;23.298;2023-04-03T04:09:10;57367.50;;;-144.48;100.00
10688;BME280;5392;42.688;23.298;2023-04-03T04:11:37;57344.53;;;-144.48;100.00
10688;BME280;5392;42.688;23.298;2023-04-03T04:14:07;57346.63;;;-144.48;100.00
10688;BME280;5392;42.688;23.298;2023-04-03T04:16:36;57346.63;;;-144.48;100.00
10688;BME280;5392;42.688;23.298;2023-04-03T04:19:03;57340.38;;;-144.48;100.00
10688;BME280;5392;42.688;23.298;2023-04-03T04:21:32;57354.97;;;-144.48;100.00
10688;BME280;5392;42.688;23.298;2023-04-03T04:23:59;57396.72;;;-144.48;100.00
10688;BME280;5392;42.688;23.298;2023-04-03T04:26:26;57405.06;;;-144.48;100.00
10688;BME280;5392;42.688;23.298;2023-04-03T04:28:52;57365.41;;;-144.48;100.00
10688;BME280;5392;42.688;23.298;2023-04-03T04:31:19;57342.47;;;-144.48;100.00
10688;BME280;5392;42.688;23.298;2023-04-03T04:33:46;57344.53;;;-144.48;100.00
10688;BME280;5392;42.688;23.298;2023-04-03T04:36:12;57350.81;;;-144.48;100.00
10688;BME280;5392;42.688;23.298;2023-04-03T04:38:41;57346.63;;;-144.48;100.00
10688;BME280;5392;42.688;23.298;2023-04-03T04:41:08;57365.41;;;-144.48;100.00
10688;BME280;5392;42.688;23.298;2023-04-03T04:43:35;57323.66;;;-144.48;100.00
10688;BME280;5392;42.688;23.298;2023-04-03T04:46:06;57359.16;;;-144.48;100.00
10688;BME280;5392;42.688;23.298;2023-04-03T04:48:34;57350.81;;;-144.48;100.00
10688;BME280;5392;42.688;23.298;2023-04-03T04:51:02;57354.97;;;-144.48;100.00
10688;BME280;5392;42.688;23.298;2023-04-03T04:53:29;57340.38;;;-144.48;100.00
10688;BME280;5392;42.688;23.298;2023-04-03T04:55:56;57373.75;;;-144.48;100.00
10688;BME280;5392;42.688;23.298;2023-04-03T04:58:23;57384.19;;;-144.48;100.00
10688;BME280;5392;42.688;23.298;2023-04-03T05:00:49;57346.63;;;-144.48;100.00
10688;BME280;5392;42.688;23.298;2023-04-03T05:03:16;57363.31;;;-144.48;100.00
10688;BME280;5392;42.688;23.298;2023-04-03T05:05:43;57380.03;;;-144.48;100.00
10688;BME280;5392;42.688;23.298;2023-04-03T05:08:09;57380.03;;;-144.48;100.00
10688;BME280;5392;42.688;23.298;2023-04-03T05:10:36;57354.97;;;-144.48;100.00
10688;BME280;5392;42.688;23.298;2023-04-03T05:13:03;57380.03;;;-144.48;100.00
10688;BME280;5392;42.688;23.298;2023-04-03T05:15:30;57365.41;;;-144.48;100.00
10688;BME280;5392;42.688;23.298;2023-04-03T05:17:56;57363.31;;;-144.48;100.00
10688;BME280;5392;42.688;23.298;2023-04-03T05:20:23;57334.09;;;-144.48;100.00
10688;BME280;5392;42.688;23.298;2023-04-03T05:22:50;57354.97;;;-144.48;100.00
10688;BME280;5392;42.688;23.298;2023-04-03T05:25:16;57344.53;;;-144.48;100.00
10688;BME280;5392;42.688;23.298;2023-04-03T05:27:43;57403.00;;;-144.48;100.00
10688;BME280;5392;42.688;23.298;2023-04-03T05:30:10;57354.97;;;-144.48;100.00
10688;BME280;5392;42.688;23.298;2023-04-03T05:32:37;57367.50;;;-144.48;100.00
10688;BME280;5392;42.688;23.298;2023-04-03T05:35:04;57369.59;;;-144.48;100.00
10688;BME280;5392;42.688;23.298;2023-04-03T05:37:32;57367.50;;;-144.48;100.00
10688;BME280;5392;42.688;23.298;2023-04-03T05:39:59;57386.28;;;-144.48;100.00
10688;BME280;5392;42.688;23.298;2023-04-03T05:42:26;57384.19;;;-144.48;100.00
10688;BME280;5392;42.688;23.298;2023-04-03T05:44:53;57350.81;;;-144.48;100.00
10688;BME280;5392;42.688;23.298;2023-04-03T05:47:19;57388.38;;;-144.48;100.00
10688;BME280;5392;42.688;23.298;2023-04-03T05:49:46;57325.75;;;-144.48;100.00
10688;BME280;5392;42.688;23.298;2023-04-03T05:52:26;57352.91;;;-144.48;100.00
10688;BME280;5392;42.688;23.298;2023-04-03T05:54:53;57377.94;;;-144.48;100.00
10688;BME280;5392;42.688;23.298;2023-04-03T05:57:20;57365.41;;;-144.48;100.00
10688;BME280;5392;42.688;23.298;2023-04-03T05:59:47;57365.41;;;-144.48;100.00
10688;BME280;5392;42.688;23.298;2023-04-03T06:02:17;57400.91;;;-144.48;100.00
10688;BME280;5392;42.688;23.298;2023-04-03T06:04:44;57367.50;;;-144.48;100.00
10688;BME280;5392;42.688;23.298;2023-04-03T06:07:15;57363.31;;;-144.48;100.00
10688;BME280;5392;42.688;23.298;2023-04-03T06:09:43;57348.72;;;-144.48;100.00
10688;BME280;5392;42.688;23.298;2023-04-03T06:12:10;57354.97;;;-144.48;100.00
10688;BME280;5392;42.688;23.298;2023-04-03T06:14:37;57375.84;;;-144.48;100.00
10688;BME280;5392;42.688;23.298;2023-04-03T06:17:04;57357.06;;;-144.48;100.00
10688;BME280;5392;42.688;23.298;2023-04-03T06:19:32;57346.63;;;-144.48;99.70
10688;BME280;5392;42.688;23.298;2023-04-03T06:21:59;57363.31;;;-144.48;100.00
10688;BME280;5392;42.688;23.298;2023-04-03T06:24:26;57380.03;;;-144.48;100.00
10688;BME280;5392;42.688;23.298;2023-04-03T06:26:53;57367.50;;;-144.48;99.88
10688;BME280;5392;42.688;23.298;2023-04-03T06:29:20;57336.19;;;-144.48;98.69
10688;BME280;5392;42.688;23.298;2023-04-03T06:31:48;57323.66;;;-144.48;96.83
10688;BME280;5392;42.688;23.298;2023-04-03T06:34:15;57350.81;;;-144.48;94.65
10688;BME280;5392;42.688;23.298;2023-04-03T06:36:42;57382.13;;;-144.48;92.19
10688;BME280;5392;42.688;23.298;2023-04-03T06:39:17;57340.38;;;-144.48;93.12
10688;BME280;5392;42.688;23.298;2023-04-03T06:41:44;57357.06;;;-144.48;92.48
10688;BME280;5392;42.688;23.298;2023-04-03T06:44:11;57367.50;;;-144.48;93.42
10688;BME280;5392;42.688;23.298;2023-04-03T06:46:39;57352.91;;;-144.48;94.41
10688;BME280;5392;42.688;23.298;2023-04-03T06:49:06;57363.31;;;-144.48;95.36
10688;BME280;5392;42.688;23.298;2023-04-03T06:51:37;57342.47;;;-144.48;93.58
10688;BME280;5392;42.688;23.298;2023-04-03T06:54:04;57373.75;;;-144.48;94.15
10688;BME280;5392;42.688;23.298;2023-04-03T06:56:32;57336.19;;;-144.48;93.34
10688;BME280;5392;42.688;23.298;2023-04-03T06:58:59;57396.72;;;-144.48;92.45
10688;BME280;5392;42.688;23.298;2023-04-03T07:01:27;57323.66;;;-144.48;91.93
10688;BME280;5392;42.688;23.298;2023-04-03T07:03:55;57346.63;;;-144.48;92.47
10688;BME280;5392;42.688;23.298;2023-04-03T07:06:22;57321.59;;;-144.48;91.83
10688;BME280;5392;42.688;23.298;2023-04-03T07:08:49;57354.97;;;-144.48;89.90
10688;BME280;5392;42.688;23.298;2023-04-03T07:11:16;57365.41;;;-144.48;89.76
10688;BME280;5392;42.688;23.298;2023-04-03T07:13:43;57357.06;;;-144.48;89.40
10688;BME280;5392;42.688;23.298;2023-04-03T07:16:10;57338.28;;;-144.48;89.43
10688;BME280;5392;42.688;23.298;2023-04-03T07:18:37;57380.03;;;-144.48;88.62
10688;BME280;5392;42.688;23.298;2023-04-03T07:21:04;57354.97;;;-144.48;87.58
10688;BME280;5392;42.688;23.298;2023-04-03T07:23:30;57384.19;;;-144.48;86.09
10688;BME280;5392;42.688;23.298;2023-04-03T07:25:57;57396.72;;;-144.48;85.89
10688;BME280;5392;42.688;23.298;2023-04-03T07:28:24;57359.16;;;-144.48;85.15
10688;BME280;5392;42.688;23.298;2023-04-03T07:31:03;57367.50;;;-144.48;83.04
10688;BME280;5392;42.688;23.298;2023-04-03T07:33:30;57382.13;;;-144.48;82.57
10688;BME280;5392;42.688;23.298;2023-04-03T07:35:57;57359.16;;;-144.48;81.57
10688;BME280;5392;42.688;23.298;2023-04-03T07:38:24;57405.06;;;-144.48;75.72
10688;BME280;5392;42.688;23.298;2023-04-03T07:40:52;57313.22;;;-144.48;73.72
10688;BME280;5392;42.688;23.298;2023-04-03T07:43:20;57321.59;;;-144.48;72.32
10688;BME280;5392;42.688;23.298;2023-04-03T07:45:48;57384.19;;;-144.48;71.23
10688;BME280;5392;42.688;23.298;2023-04-03T07:48:19;57309.06;;;-144.48;71.89
10688;BME280;5392;42.688;23.298;2023-04-03T07:50:46;57344.53;;;-144.48;71.18
10688;BME280;5392;42.688;23.298;2023-04-03T07:53:13;57319.50;;;-144.48;69.67
10688;BME280;5392;42.688;23.298;2023-04-03T07:55:40;57340.38;;;-144.48;69.60
10688;BME280;5392;42.688;23.298;2023-04-03T07:58:16;57354.97;;;-144.48;71.58
10688;BME280;5392;42.688;23.298;2023-04-03T08:00:43;57369.59;;;-144.48;70.57
10688;BME280;5392;42.688;23.298;2023-04-03T08:03:11;57367.50;;;-144.48;71.15
10688;BME280;5392;42.688;23.298;2023-04-03T08:05:41;57348.72;;;-144.48;72.20
10688;BME280;5392;42.688;23.298;2023-04-03T08:08:10;57346.63;;;-144.48;71.68
10688;BME280;5392;42.688;23.298;2023-04-03T08:10:37;57352.91;;;-144.48;71.72
10688;BME280;5392;42.688;23.298;2023-04-03T08:13:04;57361.25;;;-144.48;71.19
10688;BME280;5392;42.688;23.298;2023-04-03T08:15:31;57371.69;;;-144.48;70.27
10688;BME280;5392;42.688;23.298;2023-04-03T08:17:59;57386.28;;;-144.48;71.78
10688;BME280;5392;42.688;23.298;2023-04-03T08:20:27;57344.53;;;-144.48;70.32
10688;BME280;5392;42.688;23.298;2023-04-03T08:22:54;57332.03;;;-144.48;69.77
10688;BME280;5392;42.688;23.298;2023-04-03T08:25:21;57346.63;;;-144.48;70.16
10688;BME280;5392;42.688;23.298;2023-04-03T08:27:48;57361.25;;;-144.48;70.48
10688;BME280;5392;42.688;23.298;2023-04-03T08:30:15;57296.53;;;-144.48;69.88
10688;BME280;5392;42.688;23.298;2023-04-03T08:32:41;57327.84;;;-144.48;70.78
10688;BME280;5392;42.688;23.298;2023-04-03T08:35:10;57321.59;;;-144.48;69.77
10688;BME280;5392;42.688;23.298;2023-04-03T08:37:38;57344.53;;;-144.48;69.38
10688;BME280;5392;42.688;23.298;2023-04-03T08:40:06;57321.59;;;-144.48;69.64
10688;BME280;5392;42.688;23.298;2023-04-03T08:42:59;57361.25;;;-144.48;70.63
10688;BME280;5392;42.688;23.298;2023-04-03T08:45:40;57361.25;;;-144.48;70.36
10688;BME280;5392;42.688;23.298;2023-04-03T08:48:17;57363.31;;;-144.48;71.34
10688;BME280;5392;42.688;23.298;2023-04-03T08:50:48;57388.38;;;-144.48;72.71
10688;BME280;5392;42.688;23.298;2023-04-03T08:53:21;57354.97;;;-144.48;70.23
10688;BME280;5392;42.688;23.298;2023-04-03T08:55:50;57302.81;;;-144.48;71.21
10688;BME280;5392;42.688;23.298;2023-04-03T08:58:20;57325.75;;;-144.48;70.88
10688;BME280;5392;42.688;23.298;2023-04-03T09:01:17;57323.66;;;-144.48;71.86
10688;BME280;5392;42.688;23.298;2023-04-03T09:03:45;57359.16;;;-144.48;71.87
10688;BME280;5392;42.688;23.298;2023-04-03T09:06:25;57348.72;;;-144.48;71.33
10688;BME280;5392;42.688;23.298;2023-04-03T09:09:14;57365.41;;;-144.48;68.90
10688;BME280;5392;42.688;23.298;2023-04-03T09:12:01;57350.81;;;-144.48;70.13
10688;BME280;5392;42.688;23.298;2023-04-03T09:20:38;57367.50;;;-144.48;70.81
10688;BME280;5392;42.688;23.298;2023-04-03T09:23:36;57363.31;;;-144.48;71.08
10688;BME280;5392;42.688;23.298;2023-04-03T09:26:14;57329.94;;;-144.48;70.17
10688;BME280;5392;42.688;23.298;2023-04-03T09:28:43;57325.75;;;-144.48;69.26
10688;BME280;5392;42.688;23.298;2023-04-03T09:31:29;57363.31;;;-144.48;68.62
10688;BME280;5392;42.688;23.298;2023-04-03T09:34:02;57380.03;;;-144.48;67.93
10688;BME280;5392;42.688;23.298;2023-04-03T09:36:49;57348.72;;;-144.48;68.15
10688;BME280;5392;42.688;23.298;2023-04-03T09:39:23;57354.97;;;-144.48;69.52
10688;BME280;5392;42.688;23.298;2023-04-03T09:42:01;57344.53;;;-144.48;68.81
10688;BME280;5392;42.688;23.298;2023-04-03T09:44:34;57350.81;;;-144.48;68.41
10688;BME280;5392;42.688;23.298;2023-04-03T09:47:34;57390.47;;;-144.48;67.12
10688;BME280;5392;42.688;23.298;2023-04-03T09:52:42;57348.72;;;-144.48;67.44
10688;BME280;5392;42.688;23.298;2023-04-03T09:55:20;57334.09;;;-144.48;69.73
10688;BME280;5392;42.688;23.298;2023-04-03T09:58:01;57371.69;;;-144.48;68.39
10688;BME280;5392;42.688;23.298;2023-04-03T10:00:35;57367.50;;;-144.48;68.42
10688;BME280;5392;42.688;23.298;2023-04-03T10:03:03;57346.63;;;-144.48;69.28
10688;BME280;5392;42.688;23.298;2023-04-03T10:05:32;57384.19;;;-144.48;71.16
10688;BME280;5392;42.688;23.298;2023-04-03T10:08:21;57359.16;;;-144.48;72.40
10688;BME280;5392;42.688;23.298;2023-04-03T10:11:10;57365.41;;;-144.48;72.42
10688;BME280;5392;42.688;23.298;2023-04-03T10:13:53;57359.16;;;-144.48;71.81
10688;BME280;5392;42.688;23.298;2023-04-03T10:17:26;57344.53;;;-144.48;72.68
10688;BME280;5392;42.688;23.298;2023-04-03T10:19:58;57361.25;;;-144.48;70.29
10688;BME280;5392;42.688;23.298;2023-04-03T10:22:59;57348.72;;;-144.48;72.92
10688;BME280;5392;42.688;23.298;2023-04-03T10:28:57;57325.75;;;-144.48;71.64
10688;BME280;5392;42.688;23.298;2023-04-03T10:31:53;57325.75;;;-144.48;73.04
10688;BME280;5392;42.688;23.298;2023-04-03T10:34:33;57350.81;;;-144.48;72.86
10688;BME280;5392;42.688;23.298;2023-04-03T10:57:56;57342.47;;;-144.48;72.56
10688;BME280;5392;42.688;23.298;2023-04-03T11:00:41;57367.50;;;-144.48;72.53
10688;BME280;5392;42.688;23.298;2023-04-03T11:03:42;57377.94;;;-144.48;72.71
10688;BME280;5392;42.688;23.298;2023-04-03T11:06:12;57313.22;;;-144.48;73.78
10688;BME280;5392;42.688;23.298;2023-04-03T11:09:01;57344.53;;;-144.48;74.54
10688;BME280;5392;42.688;23.298;2023-04-03T11:11:33;57388.38;;;-144.48;76.01
10688;BME280;5392;42.688;23.298;2023-04-03T11:14:26;57365.41;;;-144.48;77.88
10688;BME280;5392;42.688;23.298;2023-04-03T11:17:19;57350.81;;;-144.48;80.25
10688;BME280;5392;42.688;23.298;2023-04-03T11:20:00;57377.94;;;-144.48;81.84
10688;BME280;5392;42.688;23.298;2023-04-03T11:22:32;57365.41;;;-144.48;86.31
10688;BME280;5392;42.688;23.298;2023-04-03T11:25:04;57350.81;;;-144.48;89.80
10688;BME280;5392;42.688;23.298;2023-04-03T11:27:54;57357.06;;;-144.48;94.34
10688;BME280;5392;42.688;23.298;2023-04-03T11:30:28;57367.50;;;-144.48;97.42
10688;BME280;5392;42.688;23.298;2023-04-03T11:35:47;57357.06;;;-144.48;100.00
10688;BME280;5392;42.688;23.298;2023-04-03T11:38:23;57384.19;;;-144.48;100.00
10688;BME280;5392;42.688;23.298;2023-04-03T11:40:54;57338.28;;;-144.48;100.00
10688;BME280;5392;42.688;23.298;2023-04-03T11:43:28;57357.06;;;-144.48;100.00
10688;BME280;5392;42.688;23.298;2023-04-03T11:45:59;57350.81;;;-144.48;100.00
10688;BME280;5392;42.688;23.298;2023-04-03T11:50:59;57382.13;;;-144.48;100.00
10688;BME280;5392;42.688;23.298;2023-04-03T11:53:32;57369.59;;;-144.48;100.00
10688;BME280;5392;42.688;23.298;2023-04-03T11:56:01;57361.25;;;-144.48;100.00
10688;BME280;5392;42.688;23.298;2023-04-03T11:58:34;57425.94;;;-144.48;100.00
10688;BME280;5392;42.688;23.298;2023-04-03T12:08:46;57363.31;;;-144.48;100.00
10688;BME280;5392;42.688;23.298;2023-04-03T12:11:19;57384.19;;;-144.48;100.00
10688;BME280;5392;42.688;23.298;2023-04-03T12:16:29;57352.91;;;-144.48;100.00
10688;BME280;5392;42.688;23.298;2023-04-03T12:26:39;57396.72;;;-144.48;100.00
10688;BME280;5392;42.688;23.298;2023-04-03T12:29:21;57375.84;;;-144.48;100.00
10688;BME280;5392;42.688;23.298;2023-04-03T12:40:01;57382.13;;;-144.48;100.00
10688;BME280;5392;42.688;23.298;2023-04-03T12:45:46;57430.13;;;-144.48;100.00
10688;BME280;5392;42.688;23.298;2023-04-03T12:48:17;57348.72;;;-144.48;100.00
10688;BME280;5392;42.688;23.298;2023-04-03T12:50:46;57365.41;;;-144.48;100.00
10688;BME280;5392;42.688;23.298;2023-04-03T12:53:18;57371.69;;;-144.48;100.00
10688;BME280;5392;42.688;23.298;2023-04-03T12:55:45;57363.31;;;-144.48;100.00
10688;BME280;5392;42.688;23.298;2023-04-03T12:58:16;57409.25;;;-144.48;100.00
10688;BME280;5392;42.688;23.298;2023-04-03T13:00:43;57388.38;;;-144.48;100.00
10688;BME280;5392;42.688;23.298;2023-04-03T13:03:23;57417.59;;;-144.48;100.00
10688;BME280;5392;42.688;23.298;2023-04-03T13:05:50;57363.31;;;-144.48;100.00
10688;BME280;5392;42.688;23.298;2023-04-03T13:08:18;57407.16;;;-144.48;100.00
10688;BME280;5392;42.688;23.298;2023-04-03T13:13:27;57388.38;;;-144.48;100.00
10688;BME280;5392;42.688;23.298;2023-04-03T13:15:54;57342.47;;;-144.48;100.00
10688;BME280;5392;42.688;23.298;2023-04-03T13:21:23;57386.28;;;-144.48;100.00
10688;BME280;5392;42.688;23.298;2023-04-03T13:23:53;57359.16;;;-144.48;100.00
10688;BME280;5392;42.688;23.298;2023-04-03T13:26:39;57377.94;;;-144.48;100.00
10688;BME280;5392;42.688;23.298;2023-04-03T13:29:19;57419.69;;;-144.48;100.00
10688;BME280;5392;42.688;23.298;2023-04-03T13:31:56;57382.13;;;-144.48;100.00
10688;BME280;5392;42.688;23.298;2023-04-03T13:34:26;57380.03;;;-144.48;100.00
10688;BME280;5392;42.688;23.298;2023-04-03T13:36:58;57373.75;;;-144.48;100.00
10688;BME280;5392;42.688;23.298;2023-04-03T13:39:33;57390.47;;;-144.48;100.00
10688;BME280;5392;42.688;23.298;2023-04-03T13:42:25;57390.47;;;-144.48;100.00
10688;BME280;5392;42.688;23.298;2023-04-03T13:47:48;57409.25;;;-144.48;100.00
10688;BME280;5392;42.688;23.298;2023-04-03T13:50:24;57407.16;;;-144.48;100.00
10688;BME280;5392;42.688;23.298;2023-04-03T13:52:54;57417.59;;;-144.48;100.00
10688;BME280;5392;42.688;23.298;2023-04-03T13:58:03;57411.34;;;-144.48;100.00
10688;BME280;5392;42.688;23.298;2023-04-03T14:00:52;57373.75;;;-144.48;100.00
10688;BME280;5392;42.688;23.298;2023-04-03T14:05:52;57388.38;;;-144.48;100.00
10688;BME280;5392;42.688;23.298;2023-04-03T14:08:19;57363.31;;;-144.48;100.00
10688;BME280;5392;42.688;23.298;2023-04-03T14:11:01;57423.88;;;-144.48;100.00
10688;BME280;5392;42.688;23.298;2023-04-03T14:13:31;57388.38;;;-144.48;100.00
10688;BME280;5392;42.688;23.298;2023-04-03T14:15:58;57390.47;;;-144.48;100.00
10688;BME280;5392;42.688;23.298;2023-04-03T14:18:40;57411.34;;;-144.48;100.00
10688;BME280;5392;42.688;23.298;2023-04-03T14:21:07;57417.59;;;-144.48;100.00